por Rui Almeida

17 DE ABRIL 2015

32 ASES DE GRANDE NÍVEL

DUPLA VITÓRIA DE LUÍS FERNANDES

 

O troféu ASES PELOS ARES está a atravessar um dos melhores momentos da sua história.

Muita quantidade acompanhada de muita qualidade, permitindo cozinhar um cocktail (leia-se campeonato) com um nível de competitividade muito acima da média.

A juntar a isto tudo, tem imperado um ambiente tranquilo que permite um óptimo convívio entre todos e que torna o evento numa óptima manhã de prazer e satisfação pessoal: Muito bom.

32 Pilotos apresentaram-se nesta segunda jornada, numa manhã em que o São Pedro resolveu finalmente virar-se para outras paragens e deixar os ASES fazerem uma prova sem chuva!

Aproveitou-se então para usar um traçado que é do agrado da esmagadora maioria – a junção das duas pistas e tivemos três corridas muito boas com alto índice de competitividade.

 

CORRIDA 1

A grelha de partida continha 22 pilotos e João Moreira começou desde logo a mostrar que este ano está de facto fortemente empenhado no título dos Ases. Atrás de si ficou aquele que é desde já uma das revelações dos ASES 2015 – Pedro Sousa.

Já em 2014 Nuno Gonçalves fez excelente época terminando consistentemente no Top Ten e nesta prova começou desde logo por obter um terceiro lugar.

Na partida Pedro Sousa arrancou melhor que João Moreira, mas preocupou-se mais em proteger o seu segundo lugar e com isso acabou por bater na traseira de Moreira, perdendo o bico.

É Nuno Gonçalves que assume então o segundo lugar, seguido de Pedro Cunha que superou Rui Almeida quando este se viu forçado a contornar o frontal perdido por Pedro Sousa.

Enquanto Nuno Gonçalves prendia o pelotão atrás de si, João Moreira ia dilatando a sua vantagem, vencendo a prova com alguma tranquilidade. Pedro Cunha começava a perder a paciência e numa manobra mal calculada, acabou por perder o frontal.

Foi então a vez de Rui Almeida, mais calmo e paciente, estudar o seu adversário, acabando mesmo por o ultrapassar e arrancando um bom segundo lugar na frente de Gonçalves que obteve a melhor volta da corrida.

O quarto foi o também rookie (nos ASES) Vitor Fernandes na frente de Pedro Sousa que assim, minimizou as perdas do arranque desastrado.

CORRIDA 1
TREINOS CORRIDA BEST LAPS
Pos. Kart Piloto Tempo Dif. Pos. Kart Piloto Laps Dif. Best Pos. Kart Piloto Best Dif.
1 22 João Moreira 1:12,256 0,000 1 22 João Moreira 9 0,00 1:11,556 1 01 Nuno Gonçalves 1:11,450 0,000
2 07 Pedro Sousa 1:12,525 0,269 2 08 Rui Almeida 9 02,40 1:11,565 2 22 João Moreira 1:11,556 0,106
3 01 Nuno Gonçalves 1:12,910 0,654 3 01 Nuno Gonçalves 9 02,83 1:11,450 3 08 Rui Almeida 1:11,565 0,115
4 08 Rui Almeida 1:13,067 0,811 4 13 Vitor Fernandes 9 11,69 1:12,429 4 06 Rui Miranda 1:11,646 0,196
5 17 Pedro Cunha 1:13,201 0,945 5 07 Pedro Sousa 9 18,44 1:11,666 5 07 Pedro Sousa 1:11,666 0,216
6 05 Gustavo Gonçalves 1:13,252 0,996 6 18 Marcio Moreira 9 19,63 1:13,173 6 09 George Junior 1:12,223 0,773
7 12 Aires Azevedo 1:13,384 1,128 7 21 Renato Afonso 9 23,95 1:13,276 7 17 Pedro Cunha 1:12,273 0,823
8 13 Vitor Fernandes 1:14,119 1,863 8 15 Manuel Fonseca 9 24,49 1:13,316 8 12 Aires Azevedo 1:12,296 0,846
9 19 Iceman 1:14,320 2,064 9 20 Pedro Nunes 9 25,79 1:13,338 9 05 Gustavo Gonçalves 1:12,395 0,945
10 18 Marcio Moreira 1:14,325 2,069 10 04 Germano Torres 9 26,87 1:13,166 10 19 Iceman 1:12,423 0,973
11 21 Renato Afonso 1:14,577 2,321 11 19 Iceman 9 29,08 1:12,423 11 13 Vitor Fernandes 1:12,429 0,979
12 02 António Costa 1:14,806 2,550 12 09 George Junior 9 29,54 1:12,223 12 03 Diogo Sousa 1:12,598 1,148
13 14 Cristiano Amaro 1:14,874 2,618 13 17 Pedro Cunha 9 29,78 1:12,273 13 02 António Costa 1:13,081 1,631
14 06 Rui Miranda 1:15,109 2,853 14 06 Rui Miranda 9 31,18 1:11,646 14 04 Germano Torres 1:13,166 1,716
15 09 George Junior 1:15,908 3,652 15 12 Aires Azevedo 9 38,91 1:12,296 15 18 Marcio Moreira 1:13,173 1,723
16 15 Manuel Fonseca 1:16,107 3,851 16 05 Gustavo Gonçalves 9 39,49 1:12,395 16 21 Renato Afonso 1:13,276 1,826
17 03 Diogo Sousa 1:16,149 3,893 17 10 Renato Bastos 9 40,66 1:14,375 17 15 Manuel Fonseca 1:13,316 1,866
18 04 Germano Torres 1:16,551 4,295 18 02 António Costa 9 45,28 1:13,081 18 20 Pedro Nunes 1:13,338 1,888
19 20 Pedro Nunes 1:17,232 4,976 19 16 Joaquim Oliveira 9 47,45 1:14,619 19 14 Cristiano Amaro 1:14,038 2,588
20 10 Renato Bastos 1:17,605 5,349 20 14 Cristiano Amaro 9 50,13 1:14,038 20 10 Renato Bastos 1:14,375 2,925
21 16 Joaquim Oliveira 1:18,815 6,559 21 03 Diogo Sousa 9 52,12 1:12,598 21 16 Joaquim Oliveira 1:14,619 3,169
22 11 George Machado 1:20,274 8,018 22 11 George Machado 9 1:02,27 1:16,617 22 11 George Machado 1:16,617 5,167

CORRIDA 2

Outro piloto que arrancou 2015 cheio de vontade de mostrar serviço é Pedro Soares e nesta manga mostrava a sua vontante alcançando a pole na frente de outro piloto que tem demonstrado muita rapidez – Reinaldo Fonseca.

Dada a partida formou-se um quarteto na frente com Pedro Soares a comandar, logo seguido de Reinaldo Fonseca. Atrás e em expectativa estavam o campeão Luís Fernandes e Ruky Iceman, este a precisar de um bom resultado.

Com as voltas a passar, a pressão de Reinaldo Fonseca começa a intensificar-se, mas Soares defendia-se com mestria. Fernandes e Iceman eram meros espectadores e mantinham-se numa posição de esperar para ver.

Quem quer ganhar tem de arriscar um pouco e Reinaldo Fonseca ainda procura a sua primeira vitória nos ASES. Foi isso que fez, surpreendeu Soares que não cedeu, os karts tocaram-se e ambos tiveram de rumar às boxes…

De espectador de primeira fila, Luís Fernandes herdou uma liderança de bandeja e apesar dos esforços do Iceman, Fernandes venceu mais uma vez.

Nuno Gonçalves voltou a fazer grande corrida, perdendo mais um terceiro lugar garantido na última volta na dobragem a um piloto atrasado. Mesmo assim foi quarto atrás de Pedro Nunes.

Enquanto Pedro Soares terminava fora do top ten, Reinaldo Fonseca conseguiu recuperar até ao 8º lugar e obteve ainda a melhor volta da corrida que também passou a ser o novo recorde oficial deste traçado – 1m10,798s.

CORRIDA 2
TREINOS CORRIDA BEST LAPS
Pos. Kart Piloto Tempo Dif. Pos. Kart Piloto Laps Dif. Best Pos. Kart Piloto Best Dif.
1 01 Pedro Soares 1:11,581 0,000 1 19 Luis Fernandes 9 00,00 1:11,484 1 15 Reinaldo Fonseca 1:10,798 0,000
2 15 Reinaldo Fonseca 1:11,631 0,050 2 08 Iceman 9 00,59 1:11,360 2 08 Iceman 1:11,360 0,562
3 19 Luis Fernandes 1:11,833 0,252 3 06 Pedro Nunes 9 07,09 1:12,380 3 19 Luis Fernandes 1:11,484 0,686
4 08 Iceman 1:11,875 0,294 4 05 Nuno Gonçalves 9 07,65 1:12,250 4 09 Diogo Sousa 1:11,540 0,742
5 05 Nuno Gonçalves 1:12,342 0,761 5 14 Vitor Fernandes 9 08,03 1:11,835 5 01 Pedro Soares 1:11,641 0,843
6 06 Pedro Nunes 1:12,668 1,087 6 17 António Costa 9 08,48 1:12,395 6 12 Jorge Meireles 1:11,725 0,927
7 14 Vitor Fernandes 1:12,677 1,096 7 22 Aires Azevedo 9 11,51 1:12,497 7 14 Vitor Fernandes 1:11,835 1,037
8 17 António Costa 1:12,996 1,415 8 15 Reinaldo Fonseca 9 11,52 1:10,798 8 05 Nuno Gonçalves 1:12,250 1,452
9 12 Jorge Meireles 1:13,340 1,759 9 04 João Duarte 9 14,36 1:12,506 9 06 Pedro Nunes 1:12,380 1,582
10 22 Aires Azevedo 1:13,376 1,795 10 21 Manuel Fonseca 9 16,55 1:12,993 10 17 António Costa 1:12,395 1,597
11 09 Diogo Sousa 1:13,431 1,850 11 02 António Novo 9 19,41 1:13,043 11 22 Aires Azevedo 1:12,497 1,699
12 21 Manuel Fonseca 1:13,527 1,946 12 20 João Veiga 9 19,97 1:13,032 12 04 João Duarte 1:12,506 1,708
13 04 João Duarte 1:13,531 1,950 13 12 Jorge Meireles 9 21,24 1:11,725 13 21 Manuel Fonseca 1:12,993 2,195
14 16 José Pinhal 1:13,753 2,172 14 01 Pedro Soares 9 23,83 1:11,641 14 20 João Veiga 1:13,032 2,234
15 02 António Novo 1:14,186 2,605 15 09 Diogo Sousa 9 26,17 1:11,540 15 02 António Novo 1:13,043 2,245
16 11 Germano Torres 1:14,303 2,722 16 03 Miguel Lopes 9 39,98 1:14,913 16 16 José Pinhal 1:13,054 2,256
17 20 João Veiga 1:14,307 2,726 17 16 José Pinhal 9 50,62 1:13,054 17 11 Germano Torres 1:14,191 3,393
18 07 Márcio Moreira 1:14,574 2,993 18 18 Nelson Pereira 9 56,82 1:14,314 18 18 Nelson Pereira 1:14,314 3,516
19 18 Nelson Pereira 1:16,608 5,027 19 11 Germano Torres 9 1:01,79 1:14,191 19 07 Márcio Moreira 1:14,585 3,787
20 10 Joaquim Oliveira 1:16,955 5,374 20 07 Márcio Moreira 9 1:11,42 1:14,585 20 03 Miguel Lopes 1:14,913 4,115
21 03 Miguel Lopes 1:17,963 6,382 21 10 Joaquim Oliveira 8 1 Lap 1:14,939 21 10 Joaquim Oliveira 1:14,939 4,141

CORRIDA 3

Última corrida do programa e última oportunidade para os pretendentes desafiarem Luís Fernandes.

Foi sem dúvida a melhor corrida do programa com Luís Fernandes a obter a pole-position na frente de João Moreira, Pedro Sousa, Reinaldo Fonseca, Rui Almeida e Rui Miranda, todos separados por meio segundo.

Rui Almeida insiste em perder frontais, desta vez logo no arranque e mais uma vez era carta fora do baralho, mas os 5 restantes apesar de não se terem ultrapassado entre si entregaram-se a uma luta muito intensa até final, com João Moreira a tentar surpreender Luís Fernandes por mais do que uma vez, enquanto Pedro Sousa os seguia de muito perto.

Boa prova para Renato Afonso. Luis Fernandes obteve também a melhor volta, mas os 4 primeiros ficaram separados por menos de uma décima de segundo!

Melhor é impossível.

CORRIDA 3
TREINOS CORRIDA BEST LAPS
Pos. Kart Piloto Tempo Dif. Pos. Kart Piloto Laps Dif. Best Pos. Kart Piloto Best Dif.
1 06 Luis Fernandes 1:11,200 0,000 1 06 Luis Fernandes 9 00,00 1:11,059 1 06 Luis Fernandes 1:11,059 0,000
2 12 João Moreira 1:11,340 0,140 2 12 João Moreira 9 00,36 1:11,063 2 12 João Moreira 1:11,063 0,004
3 18 Pedro Sousa 1:11,440 0,240 3 18 Pedro Sousa 9 00,76 1:11,096 3 18 Pedro Sousa 1:11,096 0,037
4 04 Reinaldo Fonseca 1:11,560 0,360 4 04 Reinaldo Fonseca 9 02,37 1:11,322 4 08 Rui Miranda 1:11,155 0,096
5 22 Rui Almeida 1:11,680 0,480 5 08 Rui Miranda 9 06,31 1:11,155 5 04 Reinaldo Fonseca 1:11,322 0,263
6 08 Rui Miranda 1:11,840 0,640 6 15 Renato Afonso 9 08,81 1:11,662 6 22 Rui Almeida 1:11,533 0,474
7 17 João Duarte 1:12,100 0,900 7 09 Jorge Meireles 9 09,82 1:11,550 7 09 Jorge Meireles 1:11,550 0,491
8 15 Renato Afonso 1:12,260 1,060 8 21 João Veiga 9 12,20 1:12,152 8 15 Renato Afonso 1:11,662 0,603
9 21 João Veiga 1:12,420 1,220 9 19 Gustavo Gonçalves 9 16,82 1:12,256 9 14 Pedro Cunha 1:11,884 0,825
10 14 Pedro Cunha 1:12,430 1,230 10 02 Pedro Soares 9 24,25 1:12,920 10 11 Cristiano Amaro 1:12,092 1,033
11 19 Gustavo Gonçalves 1:12,460 1,260 11 11 Cristiano Amaro 9 25,45 1:12,092 11 17 João Duarte 1:12,144 1,085
12 16 George Junior 1:12,500 1,300 12 10 António Novo 9 29,58 1:13,134 12 21 João Veiga 1:12,152 1,093
13 09 Jorge Meireles 1:12,580 1,380 13 17 João Duarte 9 29,74 1:12,144 13 16 George Junior 1:12,208 1,149
14 02 Pedro Soares 1:12,930 1,730 14 16 George Junior 9 32,02 1:12,208 14 19 Gustavo Gonçalves 1:12,256 1,197
15 11 Cristiano Amaro 1:13,050 1,850 15 14 Pedro Cunha 9 32,42 1:11,884 15 02 Pedro Soares 1:12,920 1,861
16 05 José Pinhal 1:13,340 2,140 16 07 George Machado 9 40,21 1:14,403 16 10 António Novo 1:13,134 2,075
17 03 Renato Bastos 1:13,520 2,320 17 22 Rui Almeida 9 40,92 1:11,533 17 05 José Pinhal 1:13,281 2,222
18 10 António Novo 1:13,650 2,450 18 01 Miguel Lopes 9 47,63 1:14,277 18 03 Renato Bastos 1:13,473 2,414
19 07 George Machado 1:14,630 3,430 19 03 Renato Bastos 9 1:00,78 1:13,473 19 01 Miguel Lopes 1:14,277 3,218
20 01 Miguel Lopes 1:14,720 3,520 20 05 José Pinhal 5 4 Laps 1:13,281 20 07 George Machado 1:14,403 3,344
21 20 Nelson Pereira 1:18,980 7,780 21 20 Nelson Pereira 0 9 Laps --- 21 20 Nelson Pereira ---  

 

Em termos de campeonato ainda é muito cedo para tirar conclusões, mas é fundamental que os pretendentes não “ofereçam” corridas a Luís Fernandes como aconteceu na segunda manga.

João Moreira para já segue que nem uma sombra Luís Fernandes e o terceiro classificado é o surpreendente Nuno Gonçalves.

Mais atrás estão Pedro Nunes, Rui Miranda, Ruky Iceman e o rookie Pedro Sousa. Fora do top ten e a começarem a ficar preocupados estão Reinaldo Fonseca e Rui Almeida que começam desde já a ficar sem folga para mais falhanços.

A terceira prova corre-se a 9 de Maio.

 

Luís Fernandes pleno de autoridade comando já destacado o troféu 2015

 

Apesar de um início de troféu algo complicado, Reinaldo Fonsecaq tem demonstrado a sua rapidez e é o novo recordista deste traçado

 

Nuno Gonçalves está a fazer um excelente início de época e é terceiro no troféu!

 

Também Pedro Soares está forte em andamento, como mostra a a sua 2ª pole entre os ASES, mas os resultados estão pouco condizentes

 

Depois de uma 1ª prova algo nervosa, João Moreira fez agora excelente operação e já é segundo no troféu

 

Renato Afonso fez uma das suas melhores provas desde que está nos ASES

 

Tal como em 2014, Rui Almeida está a fazer um mau arranque de troféu e terá agora de acalmar o impeto se quer recuperar do 14ª lugar que ocupa

 

Manuel Fonseca muito concentrado

Márcio Moreira demonstra a descontração e boa disposição que graça nos ASES

 

Mais fotos no FACEBOOK aqui neste link:

 

<< Clique aquipara escrever aos ASES